Ocean Exporter — VRXJ4 — position and weather

sailwx.info

Track history (hours):
 
Tides and Currents Weather Stations Pressure Air Temp Water Temp Dewpoint Dewpoint Depression Visibility Wind Speed Wind Dir Waves Ship Positions

Ocean Exporter

Last reported at 2015-Feb-18 21:32 UTC. Time now 2015-Mar-04 07:04 UTC.
Position N 01°12' E 103°50'.
Warning: this ship's position is 13 days out of date.

Length 169 m; draft 8.5 m.

Type: Cargo ship. MMSI: 477980000.

Date/timePositionNaut miles runAvg speedWind from/ knotsBaromVisibWave heightAir tempDewpointWater temp
2015-Feb-18 21:32N 01°12' E 103°50'7 7.2
2015-Feb-18 20:33N 01°16' E 103°56'1 1.4
2015-Feb-18 19:29N 01°17' E 103°54'0 0.1
2015-Feb-18 18:17N 01°17' E 103°54'0 0.0
2015-Feb-18 17:14N 01°17' E 103°54'0 0.0
2015-Feb-18 16:17N 01°17' E 103°54'0 0.0
2015-Feb-18 15:32N 01°17' E 103°54'0 0.0
2015-Feb-18 13:17N 01°17' E 103°54'0 0.0
2015-Feb-18 12:33N 01°17' E 103°54'0 0.0
2015-Feb-18 11:33N 01°17' E 103°54'0 0.0
2015-Feb-18 10:32N 01°17' E 103°54'0 0.1
2015-Feb-18 09:33N 01°17' E 103°54'3 2.6
2015-Feb-18 08:33N 01°15' E 103°56'1 1.0
2015-Feb-18 07:33N 01°14' E 103°57'10 9.6
2015-Feb-18 06:30N 01°16' E 104°07'  
Track history (hours):
 
Tides and Currents Weather Stations Pressure Air Temp Water Temp Dewpoint Dewpoint Depression Visibility Wind Speed Wind Dir Waves Ship Positions

Ocean Exporter

Last reported at 2015-Feb-18 21:32 UTC. Time now 2015-Mar-04 07:04 UTC.
Position N 01°12' E 103°50'.
Warning: this ship's position is 13 days out of date.

Length 169 m; draft 8.5 m.

Type: Cargo ship. MMSI: 477980000.

Date/timePositionNaut miles runAvg speedWind from/ knotsBaromVisibWave heightAir tempDewpointWater temp
2015-Feb-18 21:32N 01°12' E 103°50'7 7.2
2015-Feb-18 20:33N 01°16' E 103°56'1 1.4
2015-Feb-18 19:29N 01°17' E 103°54'0 0.1
2015-Feb-18 18:17N 01°17' E 103°54'0 0.0
2015-Feb-18 17:14N 01°17' E 103°54'0 0.0
2015-Feb-18 16:17N 01°17' E 103°54'0 0.0
2015-Feb-18 15:32N 01°17' E 103°54'0 0.0
2015-Feb-18 13:17N 01°17' E 103°54'0 0.0
2015-Feb-18 12:33N 01°17' E 103°54'0 0.0
2015-Feb-18 11:33N 01°17' E 103°54'0 0.0
2015-Feb-18 10:32N 01°17' E 103°54'0 0.1
2015-Feb-18 09:33N 01°17' E 103°54'3 2.6
2015-Feb-18 08:33N 01°15' E 103°56'1 1.0
2015-Feb-18 07:33N 01°14' E 103°57'10 9.6
2015-Feb-18 06:30N 01°16' E 104°07'  

Dump ship's entire track history